sensor_id;sensor_type;location;lat;lon;timestamp;pressure;altitude;pressure_sealevel;temperature
8533;BMP280;4304;53.876;10.662;2023-08-31T00:02:01;100323.09;;;14.07
8533;BMP280;4304;53.876;10.662;2023-08-31T00:04:28;100326.69;;;14.06
8533;BMP280;4304;53.876;10.662;2023-08-31T00:06:54;100325.41;;;14.00
8533;BMP280;4304;53.876;10.662;2023-08-31T00:09:19;100335.16;;;13.98
8533;BMP280;4304;53.876;10.662;2023-08-31T00:11:44;100333.78;;;13.94
8533;BMP280;4304;53.876;10.662;2023-08-31T00:14:10;100329.50;;;13.93
8533;BMP280;4304;53.876;10.662;2023-08-31T00:16:36;100331.59;;;13.99
8533;BMP280;4304;53.876;10.662;2023-08-31T00:19:02;100320.31;;;13.99
8533;BMP280;4304;53.876;10.662;2023-08-31T00:21:28;100322.09;;;13.98
8533;BMP280;4304;53.876;10.662;2023-08-31T00:23:55;100314.94;;;14.00
8533;BMP280;4304;53.876;10.662;2023-08-31T00:26:21;100319.94;;;14.03
8533;BMP280;4304;53.876;10.662;2023-08-31T00:28:46;100319.94;;;14.03
8533;BMP280;4304;53.876;10.662;2023-08-31T00:31:11;100316.63;;;14.01
8533;BMP280;4304;53.876;10.662;2023-08-31T00:33:38;100315.81;;;14.10
8533;BMP280;4304;53.876;10.662;2023-08-31T00:36:04;100312.13;;;14.12
8533;BMP280;4304;53.876;10.662;2023-08-31T00:38:30;100317.34;;;14.12
8533;BMP280;4304;53.876;10.662;2023-08-31T00:40:56;100313.22;;;14.10
8533;BMP280;4304;53.876;10.662;2023-08-31T00:43:21;100320.22;;;14.09
8533;BMP280;4304;53.876;10.662;2023-08-31T00:45:51;100322.59;;;14.12
8533;BMP280;4304;53.876;10.662;2023-08-31T00:48:21;100320.91;;;14.11
8533;BMP280;4304;53.876;10.662;2023-08-31T00:50:48;100322.44;;;14.14
8533;BMP280;4304;53.876;10.662;2023-08-31T00:53:14;100333.16;;;14.11
8533;BMP280;4304;53.876;10.662;2023-08-31T00:55:40;100339.06;;;14.13
8533;BMP280;4304;53.876;10.662;2023-08-31T00:58:06;100336.59;;;14.11
8533;BMP280;4304;53.876;10.662;2023-08-31T01:01:00;100336.72;;;14.10
8533;BMP280;4304;53.876;10.662;2023-08-31T01:06:02;100342.53;;;14.13
8533;BMP280;4304;53.876;10.662;2023-08-31T01:08:42;100345.97;;;14.14
8533;BMP280;4304;53.876;10.662;2023-08-31T01:13:47;100359.84;;;14.14
8533;BMP280;4304;53.876;10.662;2023-08-31T01:16:16;100353.50;;;14.08
8533;BMP280;4304;53.876;10.662;2023-08-31T01:18:42;100358.47;;;14.20
8533;BMP280;4304;53.876;10.662;2023-08-31T01:21:16;100352.28;;;14.11
8533;BMP280;4304;53.876;10.662;2023-08-31T01:23:50;100365.47;;;14.10
8533;BMP280;4304;53.876;10.662;2023-08-31T01:26:17;100364.09;;;14.06
8533;BMP280;4304;53.876;10.662;2023-08-31T01:28:42;100362.94;;;13.99
8533;BMP280;4304;53.876;10.662;2023-08-31T01:31:07;100351.28;;;14.03
8533;BMP280;4304;53.876;10.662;2023-08-31T01:33:34;100354.00;;;14.02
8533;BMP280;4304;53.876;10.662;2023-08-31T01:36:00;100362.94;;;13.99
8533;BMP280;4304;53.876;10.662;2023-08-31T01:38:30;100367.75;;;13.94
8533;BMP280;4304;53.876;10.662;2023-08-31T01:41:01;100362.09;;;13.89
8533;BMP280;4304;53.876;10.662;2023-08-31T01:43:29;100360.31;;;13.90
8533;BMP280;4304;53.876;10.662;2023-08-31T01:45:56;100359.63;;;13.88
8533;BMP280;4304;53.876;10.662;2023-08-31T01:48:22;100359.34;;;13.91
8533;BMP280;4304;53.876;10.662;2023-08-31T01:50:47;100361.66;;;13.84
8533;BMP280;4304;53.876;10.662;2023-08-31T01:53:12;100366.59;;;13.78
8533;BMP280;4304;53.876;10.662;2023-08-31T01:55:38;100364.66;;;13.80
8533;BMP280;4304;53.876;10.662;2023-08-31T01:58:03;100372.50;;;13.80
8533;BMP280;4304;53.876;10.662;2023-08-31T02:00:29;100384.56;;;13.71
8533;BMP280;4304;53.876;10.662;2023-08-31T02:02:54;100366.03;;;13.74
8533;BMP280;4304;53.876;10.662;2023-08-31T02:05:19;100381.69;;;13.74
8533;BMP280;4304;53.876;10.662;2023-08-31T02:07:45;100373.72;;;13.76
8533;BMP280;4304;53.876;10.662;2023-08-31T02:10:10;100368.47;;;13.66
8533;BMP280;4304;53.876;10.662;2023-08-31T02:12:36;100382.34;;;13.67
8533;BMP280;4304;53.876;10.662;2023-08-31T02:15:03;100390.97;;;13.67
8533;BMP280;4304;53.876;10.662;2023-08-31T02:17:29;100385.75;;;13.67
8533;BMP280;4304;53.876;10.662;2023-08-31T02:19:54;100401.16;;;13.61
8533;BMP280;4304;53.876;10.662;2023-08-31T02:22:20;100396.19;;;13.58
8533;BMP280;4304;53.876;10.662;2023-08-31T02:24:46;100381.41;;;13.48
8533;BMP280;4304;53.876;10.662;2023-08-31T02:27:11;100393.81;;;13.55
8533;BMP280;4304;53.876;10.662;2023-08-31T02:29:36;100387.47;;;13.48
8533;BMP280;4304;53.876;10.662;2023-08-31T02:32:05;100393.63;;;13.47
8533;BMP280;4304;53.876;10.662;2023-08-31T02:34:30;100399.25;;;13.43
8533;BMP280;4304;53.876;10.662;2023-08-31T02:36:56;100395.94;;;13.41
8533;BMP280;4304;53.876;10.662;2023-08-31T02:39:21;100391.81;;;13.38
8533;BMP280;4304;53.876;10.662;2023-08-31T02:41:46;100399.34;;;13.32
8533;BMP280;4304;53.876;10.662;2023-08-31T02:44:12;100389.97;;;13.29
8533;BMP280;4304;53.876;10.662;2023-08-31T02:46:37;100384.44;;;13.23
8533;BMP280;4304;53.876;10.662;2023-08-31T02:49:03;100394.28;;;13.20
8533;BMP280;4304;53.876;10.662;2023-08-31T02:51:28;100382.91;;;13.21
8533;BMP280;4304;53.876;10.662;2023-08-31T02:53:53;100406.41;;;13.21
8533;BMP280;4304;53.876;10.662;2023-08-31T02:56:19;100385.53;;;13.21
8533;BMP280;4304;53.876;10.662;2023-08-31T02:58:44;100401.06;;;13.22
8533;BMP280;4304;53.876;10.662;2023-08-31T03:01:11;100396.28;;;13.27
8533;BMP280;4304;53.876;10.662;2023-08-31T03:03:41;100402.31;;;13.27
8533;BMP280;4304;53.876;10.662;2023-08-31T03:06:07;100404.34;;;13.24
8533;BMP280;4304;53.876;10.662;2023-08-31T03:08:33;100397.66;;;13.31
8533;BMP280;4304;53.876;10.662;2023-08-31T03:10:58;100397.66;;;13.31
8533;BMP280;4304;53.876;10.662;2023-08-31T03:13:24;100399.09;;;13.35
8533;BMP280;4304;53.876;10.662;2023-08-31T03:15:50;100403.00;;;13.29
8533;BMP280;4304;53.876;10.662;2023-08-31T03:18:15;100400.41;;;13.29
8533;BMP280;4304;53.876;10.662;2023-08-31T03:20:44;100413.00;;;13.24
8533;BMP280;4304;53.876;10.662;2023-08-31T03:23:09;100410.50;;;13.23
8533;BMP280;4304;53.876;10.662;2023-08-31T03:25:36;100407.22;;;13.21
8533;BMP280;4304;53.876;10.662;2023-08-31T03:28:02;100410.75;;;13.20
8533;BMP280;4304;53.876;10.662;2023-08-31T03:30:27;100407.34;;;13.20
8533;BMP280;4304;53.876;10.662;2023-08-31T03:32:53;100409.06;;;13.10
8533;BMP280;4304;53.876;10.662;2023-08-31T03:35:19;100413.47;;;13.09
8533;BMP280;4304;53.876;10.662;2023-08-31T03:37:47;100421.66;;;13.05
8533;BMP280;4304;53.876;10.662;2023-08-31T03:40:13;100418.44;;;13.12
8533;BMP280;4304;53.876;10.662;2023-08-31T03:42:38;100415.81;;;13.12
8533;BMP280;4304;53.876;10.662;2023-08-31T03:45:04;100421.28;;;13.09
8533;BMP280;4304;53.876;10.662;2023-08-31T03:47:30;100422.78;;;13.12
8533;BMP280;4304;53.876;10.662;2023-08-31T03:49:55;100422.09;;;13.10
8533;BMP280;4304;53.876;10.662;2023-08-31T03:52:21;100426.25;;;13.12
8533;BMP280;4304;53.876;10.662;2023-08-31T03:54:47;100422.22;;;13.08
8533;BMP280;4304;53.876;10.662;2023-08-31T03:57:12;100424.25;;;13.05
8533;BMP280;4304;53.876;10.662;2023-08-31T03:59:39;100420.94;;;13.03
8533;BMP280;4304;53.876;10.662;2023-08-31T04:02:04;100437.19;;;13.06
8533;BMP280;4304;53.876;10.662;2023-08-31T04:04:29;100439.78;;;13.06
8533;BMP280;4304;53.876;10.662;2023-08-31T04:06:55;100441.00;;;13.02
8533;BMP280;4304;53.876;10.662;2023-08-31T04:09:20;100446.09;;;13.04
8533;BMP280;4304;53.876;10.662;2023-08-31T04:11:46;100452.25;;;13.03
8533;BMP280;4304;53.876;10.662;2023-08-31T04:14:11;100446.34;;;13.01
8533;BMP280;4304;53.876;10.662;2023-08-31T04:16:36;100447.03;;;13.03
8533;BMP280;4304;53.876;10.662;2023-08-31T04:19:02;100442.06;;;13.00
8533;BMP280;4304;53.876;10.662;2023-08-31T04:21:27;100454.28;;;12.99
8533;BMP280;4304;53.876;10.662;2023-08-31T04:23:52;100448.25;;;12.99
8533;BMP280;4304;53.876;10.662;2023-08-31T04:26:18;100453.19;;;13.02
8533;BMP280;4304;53.876;10.662;2023-08-31T04:28:45;100451.69;;;12.99
8533;BMP280;4304;53.876;10.662;2023-08-31T04:31:10;100452.16;;;12.93
8533;BMP280;4304;53.876;10.662;2023-08-31T04:33:37;100456.44;;;12.94
8533;BMP280;4304;53.876;10.662;2023-08-31T04:36:06;100457.03;;;12.87
8533;BMP280;4304;53.876;10.662;2023-08-31T04:38:32;100451.38;;;12.82
8533;BMP280;4304;53.876;10.662;2023-08-31T04:41:01;100459.41;;;12.79
8533;BMP280;4304;53.876;10.662;2023-08-31T04:43:27;100451.59;;;12.79
8533;BMP280;4304;53.876;10.662;2023-08-31T04:45:53;100452.69;;;12.77
8533;BMP280;4304;53.876;10.662;2023-08-31T04:48:18;100453.91;;;12.62
8533;BMP280;4304;53.876;10.662;2023-08-31T04:50:44;100455.31;;;12.66
8533;BMP280;4304;53.876;10.662;2023-08-31T04:53:09;100448.00;;;12.60
8533;BMP280;4304;53.876;10.662;2023-08-31T04:55:35;100450.25;;;12.53
8533;BMP280;4304;53.876;10.662;2023-08-31T04:58:00;100453.56;;;12.55
8533;BMP280;4304;53.876;10.662;2023-08-31T05:00:25;100454.78;;;12.51
8533;BMP280;4304;53.876;10.662;2023-08-31T05:02:51;100461.28;;;12.46
8533;BMP280;4304;53.876;10.662;2023-08-31T05:05:16;100464.84;;;12.45
8533;BMP280;4304;53.876;10.662;2023-08-31T05:07:43;100470.19;;;12.43
8533;BMP280;4304;53.876;10.662;2023-08-31T05:10:09;100473.59;;;12.44
8533;BMP280;4304;53.876;10.662;2023-08-31T05:12:35;100477.16;;;12.43
8533;BMP280;4304;53.876;10.662;2023-08-31T05:15:00;100477.16;;;12.43
8533;BMP280;4304;53.876;10.662;2023-08-31T05:17:26;100478.13;;;12.42
8533;BMP280;4304;53.876;10.662;2023-08-31T05:19:51;100494.44;;;12.44
8533;BMP280;4304;53.876;10.662;2023-08-31T05:22:16;100491.84;;;12.44
8533;BMP280;4304;53.876;10.662;2023-08-31T05:24:42;100499.91;;;12.41
8533;BMP280;4304;53.876;10.662;2023-08-31T05:27:08;100499.06;;;12.40
8533;BMP280;4304;53.876;10.662;2023-08-31T05:29:33;100502.84;;;12.36
8533;BMP280;4304;53.876;10.662;2023-08-31T05:31:59;100512.69;;;12.44
8533;BMP280;4304;53.876;10.662;2023-08-31T05:34:24;100506.75;;;12.53
8533;BMP280;4304;53.876;10.662;2023-08-31T05:36:50;100512.75;;;12.75
8533;BMP280;4304;53.876;10.662;2023-08-31T05:39:16;100520.97;;;13.13
8533;BMP280;4304;53.876;10.662;2023-08-31T05:41:42;100515.13;;;13.51
8533;BMP280;4304;53.876;10.662;2023-08-31T05:44:08;100513.03;;;13.86
8533;BMP280;4304;53.876;10.662;2023-08-31T05:46:33;100511.84;;;14.19
8533;BMP280;4304;53.876;10.662;2023-08-31T05:48:59;100510.88;;;14.50
8533;BMP280;4304;53.876;10.662;2023-08-31T05:51:24;100515.84;;;14.62
8533;BMP280;4304;53.876;10.662;2023-08-31T05:53:50;100517.28;;;14.76
8533;BMP280;4304;53.876;10.662;2023-08-31T05:56:15;100525.84;;;15.06
8533;BMP280;4304;53.876;10.662;2023-08-31T05:58:40;100522.31;;;15.26
8533;BMP280;4304;53.876;10.662;2023-08-31T06:01:06;100529.75;;;15.39
8533;BMP280;4304;53.876;10.662;2023-08-31T06:03:32;100524.66;;;15.57
8533;BMP280;4304;53.876;10.662;2023-08-31T06:05:59;100528.81;;;15.59
8533;BMP280;4304;53.876;10.662;2023-08-31T06:08:24;100533.91;;;15.51
8533;BMP280;4304;53.876;10.662;2023-08-31T06:10:50;100532.63;;;15.74
8533;BMP280;4304;53.876;10.662;2023-08-31T06:13:16;100534.13;;;15.86
8533;BMP280;4304;53.876;10.662;2023-08-31T06:15:41;100536.66;;;16.14
8533;BMP280;4304;53.876;10.662;2023-08-31T06:18:07;100535.75;;;16.51
8533;BMP280;4304;53.876;10.662;2023-08-31T06:20:32;100529.50;;;16.25
8533;BMP280;4304;53.876;10.662;2023-08-31T06:22:59;100526.88;;;16.52
8533;BMP280;4304;53.876;10.662;2023-08-31T06:25:24;100529.09;;;16.57
8533;BMP280;4304;53.876;10.662;2023-08-31T06:27:50;100526.09;;;16.96
8533;BMP280;4304;53.876;10.662;2023-08-31T06:30:17;100528.97;;;17.02
8533;BMP280;4304;53.876;10.662;2023-08-31T06:32:44;100539.50;;;16.93
8533;BMP280;4304;53.876;10.662;2023-08-31T06:35:10;100531.34;;;16.42
8533;BMP280;4304;53.876;10.662;2023-08-31T06:37:37;100542.34;;;16.10
8533;BMP280;4304;53.876;10.662;2023-08-31T06:40:02;100531.78;;;15.74
8533;BMP280;4304;53.876;10.662;2023-08-31T06:42:28;100536.47;;;15.89
8533;BMP280;4304;53.876;10.662;2023-08-31T06:44:53;100542.19;;;16.21
8533;BMP280;4304;53.876;10.662;2023-08-31T06:47:22;100536.78;;;16.67
8533;BMP280;4304;53.876;10.662;2023-08-31T06:49:47;100542.63;;;17.06
8533;BMP280;4304;53.876;10.662;2023-08-31T06:52:12;100548.72;;;17.58
8533;BMP280;4304;53.876;10.662;2023-08-31T06:54:38;100549.41;;;18.02
8533;BMP280;4304;53.876;10.662;2023-08-31T06:57:03;100557.28;;;18.02
8533;BMP280;4304;53.876;10.662;2023-08-31T06:59:29;100548.44;;;18.03
8533;BMP280;4304;53.876;10.662;2023-08-31T07:01:54;100531.34;;;18.33
8533;BMP280;4304;53.876;10.662;2023-08-31T07:04:19;100549.50;;;18.77
8533;BMP280;4304;53.876;10.662;2023-08-31T07:06:45;100554.28;;;19.30
8533;BMP280;4304;53.876;10.662;2023-08-31T07:09:10;100521.66;;;19.15
8533;BMP280;4304;53.876;10.662;2023-08-31T07:11:35;100539.44;;;19.29
8533;BMP280;4304;53.876;10.662;2023-08-31T07:14:01;100542.41;;;19.26
8533;BMP280;4304;53.876;10.662;2023-08-31T07:16:26;100540.72;;;19.09
8533;BMP280;4304;53.876;10.662;2023-08-31T07:18:52;100532.19;;;18.66
8533;BMP280;4304;53.876;10.662;2023-08-31T07:21:17;100527.47;;;18.85
8533;BMP280;4304;53.876;10.662;2023-08-31T07:23:43;100541.06;;;19.06
8533;BMP280;4304;53.876;10.662;2023-08-31T07:26:08;100540.69;;;18.93
8533;BMP280;4304;53.876;10.662;2023-08-31T07:28:34;100547.22;;;18.89
8533;BMP280;4304;53.876;10.662;2023-08-31T07:31:03;100541.06;;;19.06
8533;BMP280;4304;53.876;10.662;2023-08-31T07:33:30;100528.31;;;18.94
8533;BMP280;4304;53.876;10.662;2023-08-31T07:36:03;100515.09;;;18.78
8533;BMP280;4304;53.876;10.662;2023-08-31T07:38:30;100519.09;;;18.82
8533;BMP280;4304;53.876;10.662;2023-08-31T07:40:55;100539.47;;;18.80
8533;BMP280;4304;53.876;10.662;2023-08-31T07:43:21;100532.69;;;19.11
8533;BMP280;4304;53.876;10.662;2023-08-31T07:45:46;100540.25;;;19.14
8533;BMP280;4304;53.876;10.662;2023-08-31T07:48:12;100532.69;;;18.70
8533;BMP280;4304;53.876;10.662;2023-08-31T07:50:40;100533.28;;;18.97
8533;BMP280;4304;53.876;10.662;2023-08-31T07:53:05;100545.91;;;19.34
8533;BMP280;4304;53.876;10.662;2023-08-31T07:55:31;100540.63;;;19.50
8533;BMP280;4304;53.876;10.662;2023-08-31T07:57:56;100541.63;;;19.41
8533;BMP280;4304;53.876;10.662;2023-08-31T08:00:21;100552.69;;;19.61
8533;BMP280;4304;53.876;10.662;2023-08-31T08:02:47;100544.59;;;19.46
8533;BMP280;4304;53.876;10.662;2023-08-31T08:05:12;100545.38;;;19.23
8533;BMP280;4304;53.876;10.662;2023-08-31T08:07:37;100543.09;;;19.44
8533;BMP280;4304;53.876;10.662;2023-08-31T08:10:03;100543.59;;;19.55
8533;BMP280;4304;53.876;10.662;2023-08-31T08:12:39;100547.22;;;19.54
8533;BMP280;4304;53.876;10.662;2023-08-31T08:15:06;100541.13;;;19.69
8533;BMP280;4304;53.876;10.662;2023-08-31T08:17:35;100549.03;;;19.54
8533;BMP280;4304;53.876;10.662;2023-08-31T08:20:00;100558.75;;;19.45
8533;BMP280;4304;53.876;10.662;2023-08-31T08:22:26;100555.94;;;19.23
8533;BMP280;4304;53.876;10.662;2023-08-31T08:24:51;100568.75;;;18.77
8533;BMP280;4304;53.876;10.662;2023-08-31T08:27:17;100547.34;;;18.72
8533;BMP280;4304;53.876;10.662;2023-08-31T08:29:45;100555.00;;;18.99
8533;BMP280;4304;53.876;10.662;2023-08-31T08:32:12;100556.25;;;19.36
8533;BMP280;4304;53.876;10.662;2023-08-31T08:34:37;100565.97;;;19.27
8533;BMP280;4304;53.876;10.662;2023-08-31T08:37:02;100567.47;;;19.30
8533;BMP280;4304;53.876;10.662;2023-08-31T08:39:31;100560.09;;;19.49
8533;BMP280;4304;53.876;10.662;2023-08-31T08:41:59;100566.19;;;20.05
8533;BMP280;4304;53.876;10.662;2023-08-31T08:44:25;100586.28;;;20.06
8533;BMP280;4304;53.876;10.662;2023-08-31T08:46:51;100575.25;;;20.18
8533;BMP280;4304;53.876;10.662;2023-08-31T08:49:18;100577.41;;;20.15
8533;BMP280;4304;53.876;10.662;2023-08-31T08:51:45;100576.88;;;20.27
8533;BMP280;4304;53.876;10.662;2023-08-31T08:54:12;100566.31;;;20.27
8533;BMP280;4304;53.876;10.662;2023-08-31T08:56:38;100581.81;;;20.14
8533;BMP280;4304;53.876;10.662;2023-08-31T08:59:03;100587.31;;;20.13
8533;BMP280;4304;53.876;10.662;2023-08-31T09:01:30;100579.19;;;20.30
8533;BMP280;4304;53.876;10.662;2023-08-31T09:03:55;100607.06;;;19.93
8533;BMP280;4304;53.876;10.662;2023-08-31T09:06:22;100594.22;;;20.06
8533;BMP280;4304;53.876;10.662;2023-08-31T09:08:54;100574.44;;;20.02
8533;BMP280;4304;53.876;10.662;2023-08-31T09:11:23;100591.94;;;20.03
8533;BMP280;4304;53.876;10.662;2023-08-31T09:13:49;100613.81;;;20.19
8533;BMP280;4304;53.876;10.662;2023-08-31T09:16:28;100585.00;;;19.86
8533;BMP280;4304;53.876;10.662;2023-08-31T09:18:55;100589.59;;;19.61
8533;BMP280;4304;53.876;10.662;2023-08-31T09:21:20;100577.03;;;19.55
8533;BMP280;4304;53.876;10.662;2023-08-31T09:23:56;100593.38;;;19.74
8533;BMP280;4304;53.876;10.662;2023-08-31T09:26:23;100585.31;;;20.07
8533;BMP280;4304;53.876;10.662;2023-08-31T09:28:49;100589.69;;;20.54
8533;BMP280;4304;53.876;10.662;2023-08-31T09:31:14;100605.28;;;20.87
8533;BMP280;4304;53.876;10.662;2023-08-31T09:33:49;100615.81;;;20.95
8533;BMP280;4304;53.876;10.662;2023-08-31T09:36:15;100590.56;;;20.93
8533;BMP280;4304;53.876;10.662;2023-08-31T09:38:41;100615.97;;;20.94
8533;BMP280;4304;53.876;10.662;2023-08-31T09:41:08;100598.88;;;21.12
8533;BMP280;4304;53.876;10.662;2023-08-31T09:43:33;100614.72;;;21.20
8533;BMP280;4304;53.876;10.662;2023-08-31T09:46:00;100611.41;;;21.18
8533;BMP280;4304;53.876;10.662;2023-08-31T09:48:29;100603.91;;;21.59
8533;BMP280;4304;53.876;10.662;2023-08-31T09:50:55;100616.25;;;21.89
8533;BMP280;4304;53.876;10.662;2023-08-31T09:53:21;100621.31;;;21.98
8533;BMP280;4304;53.876;10.662;2023-08-31T09:55:48;100633.28;;;21.86
8533;BMP280;4304;53.876;10.662;2023-08-31T09:58:18;100640.72;;;21.91
8533;BMP280;4304;53.876;10.662;2023-08-31T10:00:45;100640.19;;;21.95
8533;BMP280;4304;53.876;10.662;2023-08-31T10:03:11;100630.84;;;21.85
8533;BMP280;4304;53.876;10.662;2023-08-31T10:05:40;100636.63;;;22.03
8533;BMP280;4304;53.876;10.662;2023-08-31T10:08:06;100634.59;;;21.90
8533;BMP280;4304;53.876;10.662;2023-08-31T10:10:33;100608.53;;;22.02
8533;BMP280;4304;53.876;10.662;2023-08-31T10:13:00;100621.19;;;21.92
8533;BMP280;4304;53.876;10.662;2023-08-31T10:15:33;100613.66;;;22.03
8533;BMP280;4304;53.876;10.662;2023-08-31T10:17:59;100593.41;;;22.61
8533;BMP280;4304;53.876;10.662;2023-08-31T10:20:26;100632.97;;;22.77
8533;BMP280;4304;53.876;10.662;2023-08-31T10:22:54;100652.66;;;22.60
8533;BMP280;4304;53.876;10.662;2023-08-31T10:25:22;100616.69;;;22.51
8533;BMP280;4304;53.876;10.662;2023-08-31T10:27:48;100641.34;;;22.15
8533;BMP280;4304;53.876;10.662;2023-08-31T10:38:16;100622.97;;;22.50
8533;BMP280;4304;53.876;10.662;2023-08-31T10:40:41;100640.84;;;22.34
8533;BMP280;4304;53.876;10.662;2023-08-31T10:43:16;100628.84;;;22.46
8533;BMP280;4304;53.876;10.662;2023-08-31T10:45:45;100632.59;;;22.80
8533;BMP280;4304;53.876;10.662;2023-08-31T10:48:11;100601.53;;;22.88
8533;BMP280;4304;53.876;10.662;2023-08-31T10:50:42;100620.06;;;22.60
8533;BMP280;4304;53.876;10.662;2023-08-31T10:53:10;100605.34;;;22.86
8533;BMP280;4304;53.876;10.662;2023-08-31T10:55:52;100634.22;;;22.38
8533;BMP280;4304;53.876;10.662;2023-08-31T10:58:18;100659.97;;;21.99
8533;BMP280;4304;53.876;10.662;2023-08-31T11:00:50;100613.41;;;21.08
8533;BMP280;4304;53.876;10.662;2023-08-31T11:03:16;100599.16;;;20.25
8533;BMP280;4304;53.876;10.662;2023-08-31T11:05:51;100569.97;;;19.95
8533;BMP280;4304;53.876;10.662;2023-08-31T11:08:22;100562.56;;;19.82
8533;BMP280;4304;53.876;10.662;2023-08-31T11:10:47;100586.66;;;20.03
8533;BMP280;4304;53.876;10.662;2023-08-31T11:13:18;100558.38;;;20.43
8533;BMP280;4304;53.876;10.662;2023-08-31T11:15:47;100550.88;;;20.70
8533;BMP280;4304;53.876;10.662;2023-08-31T11:18:12;100589.38;;;21.25
8533;BMP280;4304;53.876;10.662;2023-08-31T11:20:40;100618.41;;;21.63
8533;BMP280;4304;53.876;10.662;2023-08-31T11:23:06;100610.00;;;22.04
8533;BMP280;4304;53.876;10.662;2023-08-31T11:25:31;100604.81;;;22.33
8533;BMP280;4304;53.876;10.662;2023-08-31T11:28:05;100641.50;;;22.14
8533;BMP280;4304;53.876;10.662;2023-08-31T11:30:31;100614.28;;;21.31
8533;BMP280;4304;53.876;10.662;2023-08-31T11:33:00;100578.38;;;21.14
8533;BMP280;4304;53.876;10.662;2023-08-31T11:35:32;100564.72;;;20.72
8533;BMP280;4304;53.876;10.662;2023-08-31T11:37:59;100549.19;;;20.15
8533;BMP280;4304;53.876;10.662;2023-08-31T11:40:28;100548.22;;;19.93
8533;BMP280;4304;53.876;10.662;2023-08-31T11:42:53;100566.84;;;19.75
8533;BMP280;4304;53.876;10.662;2023-08-31T11:45:20;100554.78;;;19.65
8533;BMP280;4304;53.876;10.662;2023-08-31T11:47:48;100584.00;;;20.03
8533;BMP280;4304;53.876;10.662;2023-08-31T11:50:15;100590.44;;;20.01
8533;BMP280;4304;53.876;10.662;2023-08-31T11:52:42;100588.94;;;19.82
8533;BMP280;4304;53.876;10.662;2023-08-31T11:55:11;100595.34;;;19.80
8533;BMP280;4304;53.876;10.662;2023-08-31T11:57:37;100558.28;;;19.66
8533;BMP280;4304;53.876;10.662;2023-08-31T12:00:03;100577.41;;;19.75
8533;BMP280;4304;53.876;10.662;2023-08-31T12:02:35;100563.88;;;19.63
8533;BMP280;4304;53.876;10.662;2023-08-31T12:05:00;100576.50;;;19.20
8533;BMP280;4304;53.876;10.662;2023-08-31T12:07:25;100561.63;;;19.03
8533;BMP280;4304;53.876;10.662;2023-08-31T12:09:51;100582.72;;;19.11
8533;BMP280;4304;53.876;10.662;2023-08-31T12:12:20;100587.88;;;19.28
8533;BMP280;4304;53.876;10.662;2023-08-31T12:14:46;100586.50;;;19.89
8533;BMP280;4304;53.876;10.662;2023-08-31T12:17:11;100589.06;;;20.44
8533;BMP280;4304;53.876;10.662;2023-08-31T12:19:37;100605.75;;;20.91
8533;BMP280;4304;53.876;10.662;2023-08-31T12:22:05;100647.16;;;21.36
8533;BMP280;4304;53.876;10.662;2023-08-31T12:24:37;100616.19;;;21.75
8533;BMP280;4304;53.876;10.662;2023-08-31T12:27:02;100645.47;;;21.95
8533;BMP280;4304;53.876;10.662;2023-08-31T12:29:28;100618.50;;;22.00
8533;BMP280;4304;53.876;10.662;2023-08-31T12:31:53;100627.03;;;21.65
8533;BMP280;4304;53.876;10.662;2023-08-31T12:34:18;100616.25;;;21.44
8533;BMP280;4304;53.876;10.662;2023-08-31T12:36:44;100587.16;;;21.44
8533;BMP280;4304;53.876;10.662;2023-08-31T12:39:10;100615.06;;;21.47
8533;BMP280;4304;53.876;10.662;2023-08-31T12:41:39;100596.84;;;20.92
8533;BMP280;4304;53.876;10.662;2023-08-31T12:44:05;100640.56;;;20.94
8533;BMP280;4304;53.876;10.662;2023-08-31T12:46:31;100623.66;;;20.57
8533;BMP280;4304;53.876;10.662;2023-08-31T12:48:57;100606.25;;;20.01
8533;BMP280;4304;53.876;10.662;2023-08-31T12:51:22;100610.19;;;19.81
8533;BMP280;4304;53.876;10.662;2023-08-31T12:53:48;100609.69;;;19.77
8533;BMP280;4304;53.876;10.662;2023-08-31T12:56:14;100571.44;;;19.81
8533;BMP280;4304;53.876;10.662;2023-08-31T12:58:46;100624.41;;;19.96
8533;BMP280;4304;53.876;10.662;2023-08-31T13:01:12;100599.16;;;19.93
8533;BMP280;4304;53.876;10.662;2023-08-31T13:03:37;100622.75;;;20.03
8533;BMP280;4304;53.876;10.662;2023-08-31T13:06:03;100588.63;;;19.85
8533;BMP280;4304;53.876;10.662;2023-08-31T13:08:28;100583.00;;;19.96
8533;BMP280;4304;53.876;10.662;2023-08-31T13:10:54;100625.53;;;20.09
8533;BMP280;4304;53.876;10.662;2023-08-31T13:13:21;100593.56;;;20.04
8533;BMP280;4304;53.876;10.662;2023-08-31T13:15:47;100589.94;;;20.05
8533;BMP280;4304;53.876;10.662;2023-08-31T13:18:12;100578.25;;;19.84
8533;BMP280;4304;53.876;10.662;2023-08-31T13:20:38;100615.50;;;19.97
8533;BMP280;4304;53.876;10.662;2023-08-31T13:23:03;100598.34;;;20.09
8533;BMP280;4304;53.876;10.662;2023-08-31T13:25:29;100603.78;;;20.23
8533;BMP280;4304;53.876;10.662;2023-08-31T13:27:54;100612.34;;;20.17
8533;BMP280;4304;53.876;10.662;2023-08-31T13:30:19;100654.06;;;20.13
8533;BMP280;4304;53.876;10.662;2023-08-31T13:32:45;100652.59;;;20.03
8533;BMP280;4304;53.876;10.662;2023-08-31T13:35:10;100649.19;;;19.54
8533;BMP280;4304;53.876;10.662;2023-08-31T13:37:35;100628.09;;;19.38
8533;BMP280;4304;53.876;10.662;2023-08-31T13:40:01;100629.94;;;19.04
8533;BMP280;4304;53.876;10.662;2023-08-31T13:42:33;100609.25;;;18.84
8533;BMP280;4304;53.876;10.662;2023-08-31T13:44:59;100599.03;;;18.81
8533;BMP280;4304;53.876;10.662;2023-08-31T13:47:24;100620.16;;;18.64
8533;BMP280;4304;53.876;10.662;2023-08-31T13:49:49;100607.06;;;18.72
8533;BMP280;4304;53.876;10.662;2023-08-31T13:52:15;100585.22;;;18.79
8533;BMP280;4304;53.876;10.662;2023-08-31T13:54:41;100606.97;;;18.89
8533;BMP280;4304;53.876;10.662;2023-08-31T13:57:07;100600.81;;;18.73
8533;BMP280;4304;53.876;10.662;2023-08-31T13:59:32;100613.53;;;18.77
8533;BMP280;4304;53.876;10.662;2023-08-31T14:01:57;100586.16;;;18.70
8533;BMP280;4304;53.876;10.662;2023-08-31T14:04:23;100621.22;;;18.71
8533;BMP280;4304;53.876;10.662;2023-08-31T14:06:48;100630.91;;;18.70
8533;BMP280;4304;53.876;10.662;2023-08-31T14:09:14;100643.94;;;18.80
8533;BMP280;4304;53.876;10.662;2023-08-31T14:11:39;100619.56;;;18.70
8533;BMP280;4304;53.876;10.662;2023-08-31T14:14:05;100626.63;;;18.69
8533;BMP280;4304;53.876;10.662;2023-08-31T14:16:34;100629.41;;;18.68
8533;BMP280;4304;53.876;10.662;2023-08-31T14:19:02;100621.63;;;18.58